Hauptseite
METAR-TAF:

METAR-TAF

Flughäfen :

N’Djamena, Tschad

Flughafen N’Djamena

Breite: 12-08N, Länge: 015-02E, Höhe: 295 m

Beobachtung

Neuester Wetterbericht von vor 1 Stunde und 40 Minuten, um 01:00 UTC
Wind 5 kt aus West
Temperatur 28°C
Luftfeuchtigkeit 84%
Luftdruck 1009 hPa
Sichtweite 10 km oder mehr
keine Wolken unter 1500 m und keine Kumulonimbus oder Gewitterwolken

METAR: FTTJ 280100Z 26005KT CAVOK 28/25 Q1009 NOSIG

Zeit: 03:40 (02:40 UTC)

Prognose

Neuester Wetterbericht von vor 40 Minuten, um 02:00 UTC
Gültige Prognose vom 28 um 02 UTC bis 29 um 06 UTC
Wind 4 kt aus unterschiedlichen Richtungen
Sichtweite: 8000 m
Übergehend zu
vom 28 um 12 UTC bis 28 um 14 UTC
Wind 10 kt aus West
Zeitweise
vom 28 um 18 UTC bis 28 um 22 UTC
Gewitter

TAF: FTTJ 280200Z 2802/2906 VRB04KT 8000 NSC BECMG 2812/2814 26010KT TEMPO 2818/2822 TS

Wetterbeobachtungen und Prognosen von mehr als 4000 Flughäfen (METAR und TAF Bericht).

Die verfügbaren Stationen werden durch gelbe und rote Markierungen auf der Karte dargestellt.

Führen Sie die Maus auf sie, um den Namen der Station zu sehen.

Darauf klicken, um die Beobachtung von Wetterbeobachtungen und Prognosen zu sehen.

Um die Karte zu ändern : klicken Sie auf den grünen Tasten mit einem schwarzen Kreuz Zum Vergrößern, auf den grünen Button mit einem Gedankenstrich zu verkleinern, oder auf die grünen Pfeile für benachbarte Karten.


METAR-TAF: